Time;durP1;ratioP1;P1;durP2;ratioP2;P2;SDS_P1;SDS_P2;PMS_P1;PMS_P2;Temp;Humidity;BMP_temperature;BMP_pressure;BME280_temperature;BME280_humidity;BME280_pressure;Samples;Min_cycle;Max_cycle;Signal;HPM_P1;HPM_P2
2021/01/10 00:00:36;;;;;;;34.42;9.20;;;11.60;99.90;;;;;;5095890;28;20040;-64
2021/01/10 00:03:06;;;;;;;14.63;8.55;;;11.40;99.90;;;;;;5096029;28;20100;-63
2021/01/10 00:05:38;;;;;;;14.02;8.85;;;11.40;99.90;;;;;;5111224;28;20146;-64
2021/01/10 00:08:05;;;;;;;10.18;6.75;;;11.50;99.90;;;;;;5100351;28;20337;-64
2021/01/10 00:10:33;;;;;;;13.05;8.02;;;11.60;99.90;;;;;;5093332;28;20048;-63
2021/01/10 00:13:03;;;;;;;13.88;8.45;;;11.70;99.90;;;;;;5089222;28;20045;-63
2021/01/10 00:15:31;;;;;;;17.20;9.15;;;11.80;99.90;;;;;;5103741;28;20047;-62
2021/01/10 00:17:59;;;;;;;17.23;9.57;;;11.90;99.90;;;;;;5112433;28;20050;-63
2021/01/10 00:20:27;;;;;;;17.27;8.82;;;12.00;99.90;;;;;;5113438;28;20066;-63
2021/01/10 00:22:57;;;;;;;9.82;6.53;;;12.00;99.90;;;;;;5100137;28;20098;-63
2021/01/10 00:25:25;;;;;;;11.00;6.60;;;12.00;99.90;;;;;;5093195;28;20139;-63
2021/01/10 00:27:53;;;;;;;10.45;5.65;;;12.00;99.90;;;;;;5093442;28;20052;-63
2021/01/10 00:30:22;;;;;;;9.57;5.78;;;12.00;99.90;;;;;;5093146;28;20055;-64
2021/01/10 00:32:52;;;;;;;11.35;5.90;;;11.90;99.90;;;;;;5104910;28;20050;-63
2021/01/10 00:35:21;;;;;;;30.90;7.78;;;11.80;99.90;;;;;;5113459;28;20051;-63
2021/01/10 00:37:51;;;;;;;11.65;6.20;;;11.60;99.90;;;;;;5117652;28;20043;-63
2021/01/10 00:40:20;;;;;;;11.50;6.80;;;11.50;99.90;;;;;;5116490;28;20044;-63
2021/01/10 00:42:49;;;;;;;28.65;5.55;;;11.60;99.90;;;;;;5105509;28;20047;-64
2021/01/10 00:45:18;;;;;;;52.20;7.25;;;11.50;99.90;;;;;;5097049;28;20054;-63
2021/01/10 00:47:54;;;;;;;70.95;10.43;;;11.40;99.90;;;;;;5097138;28;20505;-63
2021/01/10 00:50:33;;;;;;;107.93;14.70;;;11.30;99.90;;;;;;5096338;28;20118;-64
2021/01/10 00:53:03;;;;;;;128.45;13.63;;;11.20;99.90;;;;;;5108428;28;20039;-62
2021/01/10 00:55:37;;;;;;;78.20;11.77;;;11.20;99.90;;;;;;5116527;28;20511;-63
2021/01/10 00:58:07;;;;;;;146.90;15.45;;;11.20;99.90;;;;;;5099458;28;20500;-63
2021/01/10 01:00:35;;;;;;;53.33;9.13;;;11.30;99.90;;;;;;5099060;28;20100;-64
2021/01/10 01:03:04;;;;;;;12.43;6.10;;;11.40;99.90;;;;;;5101469;28;20060;-62
2021/01/10 01:05:33;;;;;;;14.40;6.45;;;11.40;99.90;;;;;;5096588;28;20064;-63
2021/01/10 01:08:03;;;;;;;14.10;7.20;;;11.50;99.90;;;;;;5095329;28;20052;-63
2021/01/10 01:10:44;;;;;;;12.75;7.45;;;11.40;99.90;;;;;;5080431;28;20520;-64
2021/01/10 01:13:14;;;;;;;11.10;6.80;;;11.40;99.90;;;;;;5110273;28;20454;-64
2021/01/10 01:15:43;;;;;;;13.75;7.78;;;11.50;99.90;;;;;;5116398;28;20059;-62
2021/01/10 01:18:10;;;;;;;11.27;7.18;;;11.50;99.90;;;;;;5115822;28;20044;-64
2021/01/10 01:20:38;;;;;;;13.32;7.43;;;11.60;99.90;;;;;;5116846;28;20047;-64
2021/01/10 01:23:06;;;;;;;16.58;7.00;;;11.60;99.90;;;;;;5101798;28;20051;-63
2021/01/10 01:25:41;;;;;;;8.88;5.70;;;11.70;99.90;;;;;;5096438;28;20060;-63
2021/01/10 01:28:09;;;;;;;11.60;5.60;;;11.70;99.90;;;;;;5096665;28;20055;-63
2021/01/10 01:30:37;;;;;;;13.00;6.57;;;11.70;99.90;;;;;;5096320;28;20127;-63
2021/01/10 01:33:05;;;;;;;11.52;7.30;;;11.60;99.90;;;;;;5106871;28;20189;-63
2021/01/10 01:35:33;;;;;;;12.85;7.97;;;11.60;99.90;;;;;;5107943;28;20079;-63
2021/01/10 01:38:00;;;;;;;14.25;7.68;;;11.60;99.90;;;;;;5104349;28;20476;-64
2021/01/10 01:40:28;;;;;;;11.82;6.30;;;11.60;99.90;;;;;;5099571;28;20127;-63
2021/01/10 01:42:56;;;;;;;11.75;6.78;;;11.60;99.90;;;;;;5115590;28;20047;-62
2021/01/10 01:45:24;;;;;;;11.00;7.10;;;11.70;99.90;;;;;;5114601;28;20052;-64
2021/01/10 01:47:51;;;;;;;9.63;5.07;;;11.80;99.90;;;;;;5115300;28;20048;-63
2021/01/10 01:50:19;;;;;;;10.57;6.43;;;11.80;99.90;;;;;;5114288;28;20059;-64
2021/01/10 01:52:47;;;;;;;10.35;6.30;;;11.80;99.90;;;;;;5096221;28;20051;-63
2021/01/10 01:55:15;;;;;;;11.68;6.18;;;11.80;99.90;;;;;;5095467;28;20071;-64
2021/01/10 01:58:01;;;;;;;14.23;6.82;;;11.70;99.90;;;;;;5109962;28;20438;-63
2021/01/10 02:00:47;;;;;;;18.70;6.07;;;11.60;99.90;;;;;;5096198;28;20522;-64
2021/01/10 02:03:35;;;;;;;;;;;11.60;99.90;;;;;;5109578;28;20597;-63
2021/01/10 02:06:26;;;;;;;16.73;7.22;;;11.70;99.90;;;;;;5103431;28;20394;-63
2021/01/10 02:09:14;;;;;;;15.73;7.05;;;11.60;99.90;;;;;;5097062;28;20549;-65
2021/01/10 02:12:03;;;;;;;14.82;7.65;;;11.60;99.90;;;;;;5095140;28;20071;-63
2021/01/10 02:15:01;;;;;;;10.57;6.28;;;11.70;99.90;;;;;;5100118;28;20055;-64
2021/01/10 02:17:51;;;;;;;13.25;7.85;;;11.80;99.90;;;;;;5095736;28;20455;-63
2021/01/10 02:20:39;;;;;;;11.50;6.55;;;11.90;99.90;;;;;;5096000;28;20047;-62
2021/01/10 02:23:26;;;;;;;12.93;7.93;;;11.90;99.90;;;;;;5098091;28;20051;-62
2021/01/10 02:26:13;;;;;;;9.35;6.25;;;12.00;99.90;;;;;;5114937;28;20096;-63
2021/01/10 02:28:59;;;;;;;9.88;6.53;;;12.10;99.90;;;;;;5106532;28;20124;-64
2021/01/10 02:31:48;;;;;;;9.30;5.55;;;12.10;99.90;;;;;;5094420;28;20150;-64
2021/01/10 02:34:35;;;;;;;11.30;7.40;;;12.20;99.90;;;;;;5108139;28;20051;-63
2021/01/10 02:37:32;;;;;;;10.35;6.28;;;12.20;99.90;;;;;;5114513;28;20073;-64
2021/01/10 02:40:47;;;;;;;;;;;12.30;99.90;;;;;;5097174;28;20136;-63
2021/01/10 02:43:34;;;;;;;7.63;4.07;;;12.30;99.90;;;;;;5104341;28;19931;-64
2021/01/10 02:46:21;;;;;;;8.48;4.70;;;12.30;99.90;;;;;;5099770;28;20092;-63
2021/01/10 02:49:07;;;;;;;9.50;4.90;;;12.30;99.90;;;;;;5107033;28;20055;-64
2021/01/10 02:51:54;;;;;;;9.57;4.40;;;12.30;99.90;;;;;;5103282;28;20047;-63
2021/01/10 02:54:40;;;;;;;6.72;4.13;;;12.20;99.90;;;;;;5115250;28;20051;-63
2021/01/10 02:57:37;;;;;;;8.57;6.20;;;12.10;99.90;;;;;;5101745;28;20117;-63
2021/01/10 03:00:27;;;;;;;7.15;4.32;;;12.10;99.90;;;;;;5093852;28;20047;-63
2021/01/10 03:03:13;;;;;;;6.72;3.28;;;12.20;99.90;;;;;;5100417;28;20108;-63
2021/01/10 03:06:00;;;;;;;;;;;12.20;99.90;;;;;;5055638;28;20056;-64
2021/01/10 03:08:47;;;;;;;15.18;12.57;;;12.20;99.90;;;;;;5059290;28;19927;-64
2021/01/10 03:11:33;;;;;;;9.27;6.70;;;12.10;99.90;;;;;;5073480;28;20052;-64
2021/01/10 03:14:20;;;;;;;27.85;19.67;;;12.10;99.90;;;;;;5066996;28;20158;-62
2021/01/10 03:17:09;;;;;;;8.50;5.57;;;12.10;99.90;;;;;;5062499;28;20047;-63
2021/01/10 03:19:36;;;;;;;9.35;6.15;;;12.10;99.90;;;;;;5071896;28;20040;-64
2021/01/10 03:22:04;;;;;;;5.75;3.90;;;12.20;99.90;;;;;;5072627;28;20052;-64
2021/01/10 03:24:32;;;;;;;5.68;3.85;;;12.20;99.90;;;;;;5073658;28;20048;-63
2021/01/10 03:26:59;;;;;;;5.18;3.05;;;12.20;99.90;;;;;;5073100;28;20044;-63
2021/01/10 03:29:27;;;;;;;4.45;2.78;;;12.20;99.90;;;;;;5062768;28;20494;-64
2021/01/10 03:31:54;;;;;;;4.90;2.83;;;12.20;99.90;;;;;;5059794;28;20152;-65
2021/01/10 03:34:22;;;;;;;5.47;3.20;;;12.30;99.90;;;;;;5073422;28;20082;-63
2021/01/10 03:36:52;;;;;;;5.50;2.88;;;12.30;99.90;;;;;;5066981;28;20094;-63
2021/01/10 03:39:19;;;;;;;4.45;3.13;;;12.30;99.90;;;;;;5054187;28;20052;-64
2021/01/10 03:41:47;;;;;;;4.38;3.13;;;12.30;99.90;;;;;;5066304;28;20052;-64
2021/01/10 03:44:15;;;;;;;6.70;3.13;;;12.30;99.90;;;;;;5063109;28;20171;-64
2021/01/10 03:46:42;;;;;;;4.68;2.60;;;12.30;99.90;;;;;;5069897;28;20132;-64
2021/01/10 03:49:10;;;;;;;5.35;3.38;;;12.40;99.90;;;;;;5069129;28;20057;-64
2021/01/10 03:51:38;;;;;;;6.68;3.47;;;12.40;99.90;;;;;;5071067;28;20497;-64
2021/01/10 03:54:05;;;;;;;6.55;3.50;;;12.50;99.90;;;;;;5053183;28;20395;-64
2021/01/10 03:56:33;;;;;;;5.80;3.25;;;12.50;99.90;;;;;;5070001;28;20102;-64
2021/01/10 03:59:01;;;;;;;7.55;3.97;;;12.50;99.90;;;;;;5072894;28;20109;-64
2021/01/10 04:01:29;;;;;;;6.63;3.40;;;12.50;99.90;;;;;;5072732;28;20044;-63
2021/01/10 04:03:56;;;;;;;5.68;3.08;;;12.50;99.90;;;;;;5083061;28;20052;-65
2021/01/10 04:06:24;;;;;;;5.43;3.35;;;12.50;99.90;;;;;;5113714;28;20385;-64
2021/01/10 04:08:53;;;;;;;5.32;3.88;;;12.50;99.90;;;;;;5113726;28;20047;-64
2021/01/10 04:11:21;;;;;;;5.75;3.67;;;12.50;99.90;;;;;;5111433;28;20434;-63
2021/01/10 04:13:49;;;;;;;5.13;3.35;;;12.40;99.90;;;;;;5113041;28;20051;-63
2021/01/10 04:16:17;;;;;;;5.97;3.75;;;12.40;99.90;;;;;;5099087;28;20109;-64
2021/01/10 04:18:45;;;;;;;5.50;3.05;;;12.30;99.90;;;;;;5093283;28;20508;-63
2021/01/10 04:21:13;;;;;;;5.10;3.15;;;12.30;99.90;;;;;;5091612;28;20047;-64
2021/01/10 04:23:43;;;;;;;6.78;4.03;;;12.40;99.90;;;;;;5112800;28;20055;-64
2021/01/10 04:26:10;;;;;;;5.78;3.70;;;12.40;99.90;;;;;;5111709;28;20052;-64
2021/01/10 04:28:38;;;;;;;7.07;3.30;;;12.40;99.90;;;;;;5113485;28;20075;-64
2021/01/10 04:31:05;;;;;;;7.13;3.67;;;12.40;99.90;;;;;;5093663;28;20056;-63
2021/01/10 04:33:34;;;;;;;5.40;3.67;;;12.40;99.90;;;;;;5100775;28;20094;-64
2021/01/10 04:36:03;;;;;;;8.52;4.03;;;12.40;99.90;;;;;;5105678;28;20100;-64
2021/01/10 04:38:31;;;;;;;6.78;4.20;;;12.40;99.90;;;;;;5113630;28;20048;-64
2021/01/10 04:40:59;;;;;;;5.03;3.13;;;12.40;99.90;;;;;;5102795;28;20063;-65
2021/01/10 04:43:26;;;;;;;8.60;4.85;;;12.20;99.90;;;;;;5095439;28;20409;-63
2021/01/10 04:45:56;;;;;;;8.77;4.93;;;12.10;99.90;;;;;;5105403;28;20421;-63
2021/01/10 04:48:24;;;;;;;11.43;5.57;;;12.10;99.90;;;;;;5112158;28;20058;-64
2021/01/10 04:50:53;;;;;;;8.30;4.53;;;12.20;99.90;;;;;;5111985;28;20127;-64
2021/01/10 04:53:24;;;;;;;7.95;5.60;;;12.30;99.90;;;;;;5112514;28;20104;-63
2021/01/10 04:55:58;;;;;;;8.20;4.63;;;12.30;99.90;;;;;;5111470;28;20131;-64
2021/01/10 04:58:29;;;;;;;6.88;4.05;;;12.40;99.90;;;;;;5113291;28;20044;-64
2021/01/10 05:01:01;;;;;;;9.18;5.15;;;12.40;99.90;;;;;;5112262;28;20058;-64
2021/01/10 05:03:31;;;;;;;7.78;4.40;;;12.50;99.90;;;;;;5112456;28;20079;-63
2021/01/10 05:05:59;;;;;;;8.43;3.65;;;12.50;99.90;;;;;;5101166;28;20075;-63
2021/01/10 05:08:28;;;;;;;6.82;3.63;;;12.50;99.90;;;;;;5092953;28;20075;-63
2021/01/10 05:10:56;;;;;;;8.00;4.03;;;12.60;99.90;;;;;;5104594;28;20052;-63
2021/01/10 05:13:23;;;;;;;20.63;5.53;;;12.50;99.90;;;;;;5111751;28;20602;-63
2021/01/10 05:15:55;;;;;;;42.15;6.95;;;12.40;99.90;;;;;;5112235;28;20051;-64
2021/01/10 05:18:24;;;;;;;31.52;6.15;;;12.30;99.90;;;;;;5107628;28;20079;-64
2021/01/10 05:20:55;;;;;;;36.60;7.35;;;12.30;99.90;;;;;;5103745;28;20066;-64
2021/01/10 05:23:27;;;;;;;47.88;8.75;;;12.30;99.90;;;;;;5111578;28;20052;-63
2021/01/10 05:26:05;;;;;;;43.72;7.85;;;12.20;99.90;;;;;;5114409;28;20459;-63
2021/01/10 05:28:37;;;;;;;86.32;12.65;;;12.20;99.90;;;;;;5113789;28;20054;-63
2021/01/10 05:31:09;;;;;;;51.80;9.00;;;11.90;99.90;;;;;;5107442;28;20058;-63
2021/01/10 05:33:55;;;;;;;19.35;6.40;;;12.00;99.90;;;;;;5114110;28;20040;-63
2021/01/10 05:36:32;;;;;;;21.27;6.43;;;12.00;99.90;;;;;;5116858;28;20492;-63
2021/01/10 05:39:20;;;;;;;32.88;7.43;;;12.00;99.90;;;;;;5108238;28;20048;-64
2021/01/10 05:41:56;;;;;;;70.53;9.63;;;12.00;99.90;;;;;;5105648;28;20039;-64
2021/01/10 05:44:29;;;;;;;25.25;7.28;;;11.90;99.90;;;;;;5114238;28;20040;-63
2021/01/10 05:47:05;;;;;;;16.10;5.95;;;11.90;99.90;;;;;;5116372;28;20559;-64
2021/01/10 05:49:33;;;;;;;21.35;5.60;;;12.00;99.90;;;;;;5104780;28;20040;-64
2021/01/10 05:52:09;;;;;;;33.60;7.95;;;12.00;99.90;;;;;;5113984;28;20040;-64
2021/01/10 05:54:40;;;;;;;;;;;12.00;99.90;;;;;;5114418;28;20050;-63
2021/01/10 05:57:13;;;;;;;12.75;6.55;;;11.90;99.90;;;;;;5110044;28;20348;-63
2021/01/10 05:59:52;;;;;;;14.20;5.88;;;11.80;99.90;;;;;;5096060;28;20082;-64
2021/01/10 06:02:31;;;;;;;10.02;5.25;;;11.80;99.90;;;;;;5106438;28;20404;-63
2021/01/10 06:05:11;;;;;;;12.02;5.65;;;11.80;99.90;;;;;;5113427;28;20070;-64
2021/01/10 06:07:40;;;;;;;9.10;5.95;;;11.90;99.90;;;;;;5116094;28;20050;-64
2021/01/10 06:10:10;;;;;;;10.90;6.22;;;12.00;99.90;;;;;;5113362;28;20056;-63
2021/01/10 06:12:39;;;;;;;24.02;9.10;;;12.10;99.90;;;;;;5095684;28;20055;-63
2021/01/10 06:15:18;;;;;;;10.60;5.75;;;12.10;99.90;;;;;;5096556;28;20473;-65
2021/01/10 06:17:47;;;;;;;8.38;4.80;;;12.20;99.90;;;;;;5095491;28;20055;-64
2021/01/10 06:20:26;;;;;;;8.68;5.03;;;12.10;99.90;;;;;;5098127;28;20043;-63
2021/01/10 06:23:01;;;;;;;11.95;4.95;;;12.00;99.90;;;;;;5115696;28;20047;-63
2021/01/10 06:25:30;;;;;;;9.00;5.03;;;12.10;99.90;;;;;;5110997;28;20058;-64
2021/01/10 06:28:12;;;;;;;9.13;5.30;;;12.10;99.90;;;;;;5094185;28;20056;-64
2021/01/10 06:30:58;;;;;;;7.95;4.60;;;12.20;99.90;;;;;;5095844;28;20048;-63
2021/01/10 06:33:32;;;;;;;12.13;5.25;;;12.30;99.90;;;;;;5092183;28;20048;-63
2021/01/10 06:36:06;;;;;;;10.20;5.55;;;12.40;99.90;;;;;;5106532;28;20047;-63
2021/01/10 06:38:38;;;;;;;8.95;4.63;;;12.50;99.90;;;;;;5096081;28;20044;-63
2021/01/10 06:41:36;;;;;;;8.45;5.25;;;12.50;99.90;;;;;;5095116;28;20048;-64
2021/01/10 06:44:05;;;;;;;6.57;4.07;;;12.50;99.90;;;;;;5098852;28;20047;-63
2021/01/10 06:46:33;;;;;;;8.88;4.85;;;12.50;99.90;;;;;;5115064;28;20036;-64
2021/01/10 06:49:04;;;;;;;9.63;4.50;;;12.50;99.90;;;;;;5114833;28;20082;-64
2021/01/10 06:51:36;;;;;;;10.55;3.92;;;12.50;99.90;;;;;;5094835;28;20063;-64
2021/01/10 06:54:04;;;;;;;6.40;4.10;;;12.50;99.90;;;;;;5110164;28;20071;-63
2021/01/10 06:56:33;;;;;;;8.93;4.38;;;12.60;99.90;;;;;;5095794;28;20492;-63
2021/01/10 06:59:08;;;;;;;9.00;5.63;;;12.60;99.90;;;;;;5101768;28;20050;-63
2021/01/10 07:01:47;;;;;;;9.85;4.05;;;12.70;99.90;;;;;;5108391;28;20524;-64
2021/01/10 07:04:16;;;;;;;7.07;4.78;;;12.80;99.90;;;;;;5113893;28;20405;-63
2021/01/10 07:06:45;;;;;;;6.05;4.20;;;12.80;99.90;;;;;;5105196;28;20040;-63
2021/01/10 07:09:13;;;;;;;6.68;4.07;;;12.90;99.90;;;;;;5094404;28;20048;-63
2021/01/10 07:11:42;;;;;;;9.68;4.88;;;13.00;99.90;;;;;;5101714;28;20039;-64
2021/01/10 07:14:09;;;;;;;7.68;3.90;;;13.00;99.90;;;;;;5104489;28;20052;-64
2021/01/10 07:16:38;;;;;;;6.25;2.97;;;13.00;99.90;;;;;;5099288;28;20412;-63
2021/01/10 07:19:08;;;;;;;5.63;2.63;;;13.00;99.90;;;;;;5107720;28;20046;-63
2021/01/10 07:21:47;;;;;;;4.03;2.55;;;13.10;99.90;;;;;;5108180;28;20052;-64
2021/01/10 07:24:21;;;;;;;7.47;1.50;;;13.20;99.90;;;;;;5094941;28;20080;-63
2021/01/10 07:26:58;;;;;;;7.80;3.22;;;13.30;99.90;;;;;;5102181;28;20077;-64
2021/01/10 07:29:44;;;;;;;13.90;3.10;;;13.40;99.90;;;;;;5114535;28;20051;-63
2021/01/10 07:32:12;;;;;;;5.03;2.00;;;13.60;99.90;;;;;;5095821;28;20123;-64
2021/01/10 07:34:46;;;;;;;9.13;3.38;;;13.80;99.90;;;;;;5093679;28;20048;-64
2021/01/10 07:37:17;;;;;;;5.13;2.50;;;14.00;99.90;;;;;;5110966;28;20083;-63
2021/01/10 07:39:52;;;;;;;17.77;2.38;;;14.30;99.90;;;;;;5113688;28;20412;-64
2021/01/10 07:42:24;;;;;;;5.00;2.13;;;14.60;99.90;;;;;;5113380;28;20131;-64
2021/01/10 07:44:57;;;;;;;8.15;2.70;;;14.80;99.90;;;;;;5112397;28;20051;-66
2021/01/10 07:47:33;;;;;;;14.38;2.92;;;14.90;99.90;;;;;;5097222;28;20078;-63
2021/01/10 07:50:25;;;;;;;10.75;3.97;;;14.90;99.90;;;;;;5101028;28;20048;-64
2021/01/10 07:52:57;;;;;;;7.10;2.78;;;15.00;99.90;;;;;;5077711;28;20067;-60
2021/01/10 07:55:30;;;;;;;5.97;2.88;;;14.90;99.90;;;;;;5101661;28;20052;-63
2021/01/10 07:58:01;;;;;;;7.15;3.47;;;14.90;99.90;;;;;;5078675;28;20079;-64
2021/01/10 08:00:32;;;;;;;17.88;4.85;;;14.70;99.90;;;;;;5112182;28;20061;-63
2021/01/10 08:03:02;;;;;;;11.57;3.83;;;14.50;99.90;;;;;;5113676;28;20051;-63
2021/01/10 08:05:36;;;;;;;8.90;2.80;;;14.30;99.90;;;;;;5112725;28;20110;-63
2021/01/10 08:08:07;;;;;;;7.13;2.60;;;14.20;99.90;;;;;;5107938;28;20078;-64
2021/01/10 08:10:51;;;;;;;5.07;2.70;;;14.20;99.90;;;;;;5089837;28;20128;-64
2021/01/10 08:13:37;;;;;;;8.88;3.05;;;14.20;99.90;;;;;;5094425;28;20044;-63
2021/01/10 08:16:12;;;;;;;8.07;2.85;;;14.20;99.90;;;;;;5099769;28;20056;-64
2021/01/10 08:18:44;;;;;;;11.38;3.63;;;14.20;99.90;;;;;;5095083;28;20047;-63
2021/01/10 08:21:15;;;;;;;12.35;4.25;;;14.10;99.90;;;;;;5102997;28;20048;-63
2021/01/10 08:23:55;;;;;;;13.32;4.05;;;14.10;99.90;;;;;;5108491;28;20561;-63
2021/01/10 08:26:23;;;;;;;15.50;4.05;;;14.20;99.90;;;;;;5093138;28;20109;-64
2021/01/10 08:28:53;;;;;;;11.63;4.72;;;14.20;99.90;;;;;;5090612;28;20077;-63
2021/01/10 08:31:23;;;;;;;11.88;3.78;;;14.30;99.90;;;;;;5094633;28;20048;-64
2021/01/10 08:34:02;;;;;;;13.27;4.72;;;14.40;99.90;;;;;;5094420;28;20400;-62
2021/01/10 08:36:31;;;;;;;15.25;6.38;;;14.40;99.90;;;;;;5112608;28;20509;-65
2021/01/10 08:39:10;;;;;;;9.32;4.45;;;14.30;99.90;;;;;;5114149;28;20435;-63
2021/01/10 08:41:43;;;;;;;10.15;5.78;;;14.20;99.90;;;;;;5111959;28;20071;-63
2021/01/10 08:44:13;;;;;;;18.17;4.32;;;14.10;99.90;;;;;;5112287;28;20060;-64
2021/01/10 08:46:47;;;;;;;11.80;4.55;;;14.10;99.90;;;;;;5091880;28;20412;-64
2021/01/10 08:49:25;;;;;;;16.60;4.78;;;14.00;99.90;;;;;;5094073;28;20126;-63
2021/01/10 08:51:53;;;;;;;17.05;6.63;;;14.10;99.90;;;;;;5093044;28;20066;-63
2021/01/10 08:54:23;;;;;;;26.00;6.82;;;14.10;99.90;;;;;;5101177;28;20058;-64
2021/01/10 08:56:55;;;;;;;13.98;5.75;;;14.20;99.90;;;;;;5115134;28;20059;-65
2021/01/10 08:59:44;;;;;;;18.80;5.95;;;14.30;99.90;;;;;;5108520;28;20052;-64
2021/01/10 09:02:12;;;;;;;18.73;5.88;;;14.30;99.90;;;;;;5104624;28;20500;-63
2021/01/10 09:04:41;;;;;;;12.13;5.22;;;14.30;99.90;;;;;;5114298;28;20155;-64
2021/01/10 09:07:13;;;;;;;13.25;5.45;;;14.40;99.90;;;;;;5104574;28;20044;-63
2021/01/10 09:10:00;;;;;;;15.80;6.32;;;14.40;99.90;;;;;;5111216;28;20418;-62
2021/01/10 09:12:33;;;;;;;13.85;4.47;;;14.50;99.90;;;;;;5105642;28;20050;-62
2021/01/10 09:15:28;;;;;;;11.32;4.47;;;14.50;99.90;;;;;;5116014;28;20120;-63
2021/01/10 09:18:17;;;;;;;9.27;4.45;;;14.50;99.90;;;;;;5096613;28;20135;-61
2021/01/10 09:20:56;;;;;;;13.35;4.80;;;14.60;99.90;;;;;;5103988;28;20051;-64
2021/01/10 09:23:25;;;;;;;10.88;5.90;;;14.50;99.90;;;;;;5114541;27;20048;-62
2021/01/10 09:25:55;;;;;;;16.83;5.10;;;14.50;99.90;;;;;;5112679;28;20043;-62
2021/01/10 09:28:24;;;;;;;11.50;5.43;;;14.40;99.90;;;;;;5115611;28;20085;-62
2021/01/10 09:30:57;;;;;;;11.73;4.07;;;14.30;99.90;;;;;;5104284;28;20047;-63
2021/01/10 09:33:32;;;;;;;12.75;4.82;;;14.20;99.90;;;;;;5116228;28;20050;-64
2021/01/10 09:36:01;;;;;;;11.07;4.07;;;14.30;99.90;;;;;;5114506;28;20047;-62
2021/01/10 09:38:31;;;;;;;9.93;3.78;;;14.30;99.90;;;;;;5115082;28;20054;-63
2021/01/10 09:41:14;;;;;;;10.60;2.80;;;14.30;99.90;;;;;;5109328;28;20445;-64
2021/01/10 09:43:44;;;;;;;12.00;3.17;;;14.30;99.90;;;;;;5110331;27;20100;-64
2021/01/10 09:46:37;;;;;;;11.98;2.88;;;14.20;99.90;;;;;;5100027;28;20462;-62
2021/01/10 09:49:17;;;;;;;7.40;3.05;;;14.40;99.90;;;;;;5102940;28;20389;-64
2021/01/10 09:51:54;;;;;;;19.05;3.92;;;14.40;99.90;;;;;;5104732;28;20044;-65
2021/01/10 09:54:31;;;;;;;10.02;4.80;;;14.50;99.90;;;;;;5096281;28;20187;-64
2021/01/10 09:57:22;;;;;;;17.38;5.38;;;14.70;99.90;;;;;;5114297;28;20079;-65
2021/01/10 09:59:56;;;;;;;9.40;4.70;;;14.70;99.90;;;;;;5114518;28;20051;-65
2021/01/10 10:02:25;;;;;;;59.50;41.95;;;14.70;99.90;;;;;;5113800;28;20066;-63
2021/01/10 10:05:06;;;;;;;15.70;4.55;;;14.70;99.90;;;;;;5102678;28;20416;-64
2021/01/10 10:07:42;;;;;;;12.80;4.72;;;14.70;99.90;;;;;;5094062;28;20060;-63
2021/01/10 10:10:22;;;;;;;9.32;3.15;;;14.60;99.90;;;;;;5108045;28;20124;-64
2021/01/10 10:13:08;;;;;;;12.27;2.58;;;14.60;99.90;;;;;;5114320;28;20075;-63
2021/01/10 10:15:42;;;;;;;9.27;2.42;;;14.60;99.90;;;;;;5103212;28;20127;-62
2021/01/10 10:18:28;;;;;;;10.07;2.45;;;14.60;99.90;;;;;;5103841;28;20047;-62
2021/01/10 10:20:59;;;;;;;10.45;2.95;;;14.50;99.90;;;;;;5101105;28;20060;-63
2021/01/10 10:23:27;;;;;;;9.43;2.50;;;14.50;99.90;;;;;;5097191;28;20090;-61
2021/01/10 10:25:55;;;;;;;15.27;8.00;;;14.40;99.90;;;;;;5113154;28;20057;-60
2021/01/10 10:28:23;;;;;;;5.28;1.88;;;14.50;99.90;;;;;;5101999;28;20056;-63
2021/01/10 10:30:51;;;;;;;6.55;1.45;;;14.60;99.90;;;;;;5096825;28;20070;-66
2021/01/10 10:33:19;;;;;;;10.75;4.43;;;14.60;99.90;;;;;;5106619;28;20046;-64
2021/01/10 10:35:47;;;;;;;7.88;2.15;;;14.60;99.90;;;;;;5092942;28;20044;-65
2021/01/10 10:38:16;;;;;;;6.53;2.75;;;14.70;99.90;;;;;;5106241;28;20043;-65
2021/01/10 10:40:44;;;;;;;7.63;2.85;;;14.70;99.90;;;;;;5097009;28;20410;-63
2021/01/10 10:43:12;;;;;;;19.05;3.53;;;14.80;99.90;;;;;;5093200;28;20398;-63
2021/01/10 10:45:40;;;;;;;9.98;2.08;;;14.90;99.90;;;;;;5094718;28;20079;-63
2021/01/10 10:48:08;;;;;;;8.57;2.08;;;15.00;99.90;;;;;;5101522;28;20077;-64
2021/01/10 10:50:37;;;;;;;10.60;3.10;;;15.10;99.90;;;;;;5111749;28;20455;-64
2021/01/10 10:53:05;;;;;;;19.52;4.13;;;15.10;99.90;;;;;;5113399;28;20055;-64
2021/01/10 10:55:34;;;;;;;8.95;1.95;;;15.10;99.90;;;;;;5104776;28;20039;-65
2021/01/10 10:58:01;;;;;;;6.70;1.48;;;15.10;99.90;;;;;;5105261;28;20040;-64
2021/01/10 11:00:31;;;;;;;17.40;2.63;;;15.00;99.90;;;;;;5093845;28;20048;-64
2021/01/10 11:03:00;;;;;;;5.97;1.48;;;15.10;99.90;;;;;;5093290;28;20047;-64
2021/01/10 11:05:28;;;;;;;10.23;1.77;;;15.30;99.90;;;;;;5090251;28;20573;-63
2021/01/10 11:07:56;;;;;;;11.52;1.98;;;15.50;99.90;;;;;;5112608;28;20062;-64
2021/01/10 11:10:24;;;;;;;8.52;1.77;;;15.60;99.90;;;;;;5092346;28;20058;-63
2021/01/10 11:12:52;;;;;;;13.38;1.23;;;15.70;99.90;;;;;;5094066;28;20046;-65
2021/01/10 11:15:21;;;;;;;27.52;16.38;;;15.80;99.90;;;;;;5095146;28;20109;-62
2021/01/10 11:17:49;;;;;;;16.77;2.60;;;15.80;99.90;;;;;;5113008;28;20043;-63
2021/01/10 11:20:17;;;;;;;6.97;2.33;;;15.90;99.90;;;;;;5111900;28;20055;-64
2021/01/10 11:22:57;;;;;;;9.93;1.75;;;15.80;99.90;;;;;;5114051;28;20400;-65
2021/01/10 11:25:25;;;;;;;23.02;1.95;;;15.80;99.90;;;;;;5090451;28;20043;-64
2021/01/10 11:27:53;;;;;;;11.73;2.63;;;15.70;99.90;;;;;;5097807;28;20112;-65
2021/01/10 11:30:21;;;;;;;6.07;1.38;;;15.70;99.90;;;;;;5110069;28;20407;-64
2021/01/10 11:32:49;;;;;;;11.65;2.63;;;15.80;99.90;;;;;;5108018;28;20100;-64
2021/01/10 11:35:17;;;;;;;8.75;2.10;;;15.70;99.90;;;;;;5112062;28;20055;-64
2021/01/10 11:37:47;;;;;;;4.97;2.58;;;15.80;99.90;;;;;;5101761;28;20500;-60
2021/01/10 11:40:15;;;;;;;9.15;4.40;;;15.90;99.90;;;;;;5091996;28;20078;-64
2021/01/10 11:42:43;;;;;;;9.82;2.03;;;16.00;99.90;;;;;;5103998;28;20104;-63
2021/01/10 11:45:11;;;;;;;12.48;3.45;;;15.90;99.90;;;;;;5113461;28;20047;-64
2021/01/10 11:47:38;;;;;;;11.75;2.28;;;15.90;99.90;;;;;;5086393;28;20051;-64
2021/01/10 11:50:07;;;;;;;14.35;3.10;;;15.90;99.90;;;;;;5099664;28;20078;-63
2021/01/10 11:52:34;;;;;;;15.25;4.78;;;15.90;99.90;;;;;;5074802;28;20051;-64
2021/01/10 11:55:03;;;;;;;14.60;4.72;;;15.90;99.90;;;;;;5090771;28;20074;-65
2021/01/10 11:57:32;;;;;;;18.48;4.25;;;15.80;99.90;;;;;;5091826;28;20413;-64
2021/01/10 12:00:00;;;;;;;14.23;3.75;;;15.80;99.90;;;;;;5103335;28;20078;-63
2021/01/10 12:02:28;;;;;;;14.23;3.33;;;15.90;99.90;;;;;;5092280;28;20052;-63
2021/01/10 12:04:56;;;;;;;11.52;2.85;;;15.80;99.90;;;;;;5107166;28;20059;-62
2021/01/10 12:07:24;;;;;;;13.38;2.97;;;15.90;99.90;;;;;;5098925;28;20140;-64
2021/01/10 12:09:52;;;;;;;12.10;4.88;;;16.00;99.90;;;;;;5101303;28;20051;-64
2021/01/10 12:12:21;;;;;;;17.33;5.57;;;16.00;99.90;;;;;;5095061;27;20047;-63
2021/01/10 12:14:49;;;;;;;11.32;5.03;;;16.10;99.90;;;;;;5092190;28;20036;-64
2021/01/10 12:17:17;;;;;;;18.33;4.05;;;16.20;99.90;;;;;;5093492;28;20051;-64
2021/01/10 12:19:45;;;;;;;12.80;6.60;;;16.20;99.90;;;;;;5092084;28;20516;-64
2021/01/10 12:22:13;;;;;;;17.00;4.07;;;16.10;99.90;;;;;;5095383;28;20114;-62
2021/01/10 12:24:41;;;;;;;15.45;4.18;;;16.10;99.90;;;;;;5099772;28;20389;-63
2021/01/10 12:27:12;;;;;;;14.57;4.00;;;16.00;99.90;;;;;;5092840;28;20048;-63
2021/01/10 12:29:40;;;;;;;17.75;4.60;;;16.10;99.90;;;;;;5108594;28;20470;-63
2021/01/10 12:32:08;;;;;;;13.02;3.30;;;16.20;99.90;;;;;;5109459;28;20077;-64
2021/01/10 12:34:35;;;;;;;13.23;4.55;;;16.30;99.90;;;;;;5096838;28;20043;-63
2021/01/10 12:37:04;;;;;;;14.77;2.97;;;16.20;99.90;;;;;;5090902;28;20056;-64
2021/01/10 12:39:32;;;;;;;19.13;3.72;;;16.20;99.90;;;;;;5107761;28;20040;-63
2021/01/10 12:42:00;;;;;;;11.68;3.95;;;16.20;99.90;;;;;;5092911;28;20051;-64
2021/01/10 12:44:27;;;;;;;11.32;4.63;;;16.20;99.90;;;;;;5091297;28;20052;-64
2021/01/10 12:46:55;;;;;;;16.58;4.15;;;16.30;99.90;;;;;;5091848;28;20050;-64
2021/01/10 12:49:23;;;;;;;16.95;5.72;;;16.30;99.90;;;;;;5093281;28;20052;-64
2021/01/10 12:51:51;;;;;;;13.75;4.55;;;16.30;99.90;;;;;;5093054;28;20544;-64
2021/01/10 12:54:18;;;;;;;17.88;3.83;;;16.30;99.90;;;;;;5074394;28;20508;-64
2021/01/10 12:56:48;;;;;;;13.20;3.35;;;16.20;99.90;;;;;;5092853;28;20675;-64
2021/01/10 12:59:16;;;;;;;8.77;2.72;;;16.20;99.90;;;;;;5093269;28;20048;-62
2021/01/10 13:01:44;;;;;;;6.43;1.90;;;16.20;99.90;;;;;;5093401;28;20048;-63
2021/01/10 13:04:11;;;;;;;8.40;2.25;;;16.20;99.90;;;;;;5091036;28;20076;-63
2021/01/10 13:06:39;;;;;;;9.70;3.35;;;16.20;99.90;;;;;;5092786;28;20052;-64
2021/01/10 13:09:07;;;;;;;13.18;2.95;;;16.10;99.90;;;;;;5091672;28;20098;-64